Time;durP1;ratioP1;P1;durP2;ratioP2;P2;SDS_P1;SDS_P2;PMS_P1;PMS_P2;Temp;Humidity;BMP_temperature;BMP_pressure;BME280_temperature;BME280_humidity;BME280_pressure;Samples;Min_cycle;Max_cycle;Signal;HPM_P1;HPM_P2
2021/05/15 00:00:35;;;;;;;7.80;3.63;;;;;;;7.97;100.00;99738.75;2063075;28;20494;-60
2021/05/15 00:01:36;;;;;;;6.03;3.80;;;;;;;7.98;100.00;99737.00;2062895;28;20213;-60
2021/05/15 00:02:37;;;;;;;9.33;3.90;;;;;;;8.01;100.00;99737.75;2062799;28;20439;-60
2021/05/15 00:03:38;;;;;;;6.03;3.80;;;;;;;7.98;100.00;99739.59;2062550;28;20026;-61
2021/05/15 00:04:38;;;;;;;6.72;3.75;;;;;;;8.00;100.00;99743.84;2058108;28;20141;-60
2021/05/15 00:05:39;;;;;;;4.80;4.10;;;;;;;8.06;100.00;99738.50;2062844;28;20458;-60
2021/05/15 00:06:39;;;;;;;6.47;4.40;;;;;;;8.14;100.00;99740.88;2062292;28;20045;-60
2021/05/15 00:07:39;;;;;;;7.23;4.37;;;;;;;8.18;100.00;99736.47;2061991;28;20034;-60
2021/05/15 00:08:40;;;;;;;6.47;4.53;;;;;;;8.20;100.00;99742.44;2062302;28;20141;-71
2021/05/15 00:09:40;;;;;;;5.27;4.30;;;;;;;8.19;100.00;99736.41;2062375;28;20030;-61
2021/05/15 00:10:40;;;;;;;4.60;4.13;;;;;;;8.21;100.00;99747.59;2062100;28;20757;-66
2021/05/15 00:11:41;;;;;;;4.97;4.30;;;;;;;8.23;100.00;99743.19;2061079;28;20542;-61
2021/05/15 00:12:41;;;;;;;9.27;6.13;;;;;;;8.26;100.00;99737.09;2060842;28;20038;-60
2021/05/15 00:13:41;;;;;;;15.03;9.30;;;;;;;8.26;100.00;99739.69;2059688;28;20538;-61
2021/05/15 00:14:42;;;;;;;8.47;6.80;;;;;;;8.26;100.00;99734.50;2059756;28;20522;-61
2021/05/15 00:15:42;;;;;;;7.00;5.00;;;;;;;8.28;100.00;99727.50;2060006;28;20048;-61
2021/05/15 00:16:42;;;;;;;6.33;4.73;;;;;;;8.31;99.83;99719.63;2061770;28;20026;-61
2021/05/15 00:17:44;;;;;;;6.60;4.57;;;;;;;8.45;99.06;99729.59;2062166;28;20409;-60
2021/05/15 00:18:45;;;;;;;5.80;4.28;;;;;;;8.48;99.05;99718.31;2062702;28;20031;-60
2021/05/15 00:19:45;;;;;;;8.93;4.43;;;;;;;8.42;98.92;99727.13;2062595;28;20046;-60
2021/05/15 00:20:45;;;;;;;6.53;4.43;;;;;;;8.45;99.03;99724.41;2059117;28;20061;-60
2021/05/15 00:21:47;;;;;;;5.50;4.23;;;;;;;8.44;99.23;99717.53;2061876;28;20038;-61
2021/05/15 00:22:47;;;;;;;;;;;;;;;8.52;98.91;99720.78;2053393;28;20744;-60
2021/05/15 00:23:48;;;;;;;8.90;4.30;;;;;;;8.51;98.32;99708.72;2053346;28;19914;-60
2021/05/15 00:24:48;;;;;;;6.60;4.18;;;;;;;8.53;98.38;99716.44;2062058;28;20093;-60
2021/05/15 00:25:48;;;;;;;7.63;4.17;;;;;;;8.53;98.47;99713.84;2061699;28;20042;-60
2021/05/15 00:26:49;;;;;;;6.93;4.43;;;;;;;8.57;98.25;99712.88;2062430;28;20364;-60
2021/05/15 00:27:49;;;;;;;5.03;4.23;;;;;;;8.54;98.25;99710.34;2062039;28;20109;-60
2021/05/15 00:28:49;;;;;;;6.07;4.40;;;;;;;8.62;98.15;99716.16;2062139;28;20026;-60
2021/05/15 00:29:49;;;;;;;6.90;4.33;;;;;;;8.54;98.01;99712.94;2061986;28;20414;-60
2021/05/15 00:30:50;;;;;;;5.50;4.57;;;;;;;8.51;98.18;99713.91;2062270;28;20038;-60
2021/05/15 00:31:50;;;;;;;5.20;4.10;;;;;;;8.41;98.55;99712.44;2061109;28;20038;-60
2021/05/15 00:32:50;;;;;;;13.57;4.60;;;;;;;8.44;98.89;99717.53;2061092;28;20034;-61
2021/05/15 00:33:51;;;;;;;5.53;4.30;;;;;;;8.37;98.80;99714.28;2058874;28;20053;-60
2021/05/15 00:34:51;;;;;;;6.23;4.57;;;;;;;8.35;98.99;99716.06;2058318;28;20129;-60
2021/05/15 00:35:52;;;;;;;4.97;4.33;;;;;;;8.25;99.35;99712.84;2052819;28;20038;-60
2021/05/15 00:36:52;;;;;;;5.13;4.60;;;;;;;8.26;99.76;99713.72;2052410;28;20035;-60
2021/05/15 00:37:52;;;;;;;6.87;4.93;;;;;;;8.14;99.91;99724.44;2061894;28;20109;-60
2021/05/15 00:38:53;;;;;;;6.43;5.17;;;;;;;8.14;100.00;99719.25;2062231;28;20109;-60
2021/05/15 00:39:53;;;;;;;8.20;5.10;;;;;;;8.12;100.00;99723.63;2061838;28;20049;-60
2021/05/15 00:40:53;;;;;;;5.83;5.23;;;;;;;8.07;100.00;99724.63;2061824;28;20037;-60
2021/05/15 00:41:53;;;;;;;5.97;5.37;;;;;;;8.06;100.00;99716.88;2061175;28;20045;-60
2021/05/15 00:42:54;;;;;;;7.07;5.03;;;;;;;7.97;100.00;99715.41;2062491;28;20088;-60
2021/05/15 00:44:09;;;;;;;6.07;5.13;;;;;;;8.00;100.00;99723.06;2062581;28;20030;-60
2021/05/15 00:45:11;;;;;;;7.25;5.63;;;;;;;7.98;100.00;99719.69;2061239;28;20044;-60
2021/05/15 00:46:13;;;;;;;6.68;5.32;;;;;;;8.00;100.00;99725.66;2063050;28;20538;-60
2021/05/15 00:47:18;;;;;;;8.45;5.72;;;;;;;7.94;100.00;99723.25;2060898;28;20038;-60
2021/05/15 00:48:19;;;;;;;6.57;5.15;;;;;;;7.89;100.00;99725.09;2061635;28;20018;-60
2021/05/15 00:49:19;;;;;;;7.97;5.33;;;;;;;7.86;100.00;99735.59;2061175;28;20101;-60
2021/05/15 00:50:19;;;;;;;6.83;5.60;;;;;;;7.77;100.00;99724.56;2060665;28;20368;-61
2021/05/15 00:51:20;;;;;;;7.57;5.13;;;;;;;7.74;100.00;99724.63;2058375;28;20037;-61
2021/05/15 00:52:21;;;;;;;6.10;5.05;;;;;;;7.74;100.00;99726.38;2059169;28;20092;-60
2021/05/15 00:53:22;;;;;;;8.95;5.32;;;;;;;7.74;100.00;99731.56;2058497;28;20562;-60
2021/05/15 00:54:22;;;;;;;6.83;5.60;;;;;;;7.76;100.00;99724.59;2059174;28;20026;-60
2021/05/15 00:55:24;;;;;;;6.03;4.80;;;;;;;7.67;100.00;99725.69;2059860;28;20045;-60
2021/05/15 00:56:25;;;;;;;8.15;5.25;;;;;;;7.64;100.00;99726.59;2061343;28;20509;-60
2021/05/15 00:57:26;;;;;;;;;;;;;;;7.73;100.00;99724.69;2061833;28;20472;-60
2021/05/15 00:58:26;;;;;;;6.03;4.80;;;;;;;7.76;100.00;99717.66;2060484;28;19917;-60
2021/05/15 00:59:26;;;;;;;6.43;4.40;;;;;;;7.69;100.00;99729.06;2061555;28;20030;-60
2021/05/15 01:00:27;;;;;;;5.70;4.50;;;;;;;7.69;100.00;99720.47;2061729;28;20105;-60
2021/05/15 01:01:27;;;;;;;6.07;4.20;;;;;;;7.73;100.00;99725.53;2060972;28;20022;-60
2021/05/15 01:02:27;;;;;;;5.10;4.50;;;;;;;7.74;100.00;99726.38;2062113;28;20467;-60
2021/05/15 01:03:28;;;;;;;6.13;4.37;;;;;;;7.78;100.00;99726.28;2060905;28;20085;-60
2021/05/15 01:04:28;;;;;;;5.43;4.00;;;;;;;7.75;100.00;99718.56;2061015;28;20038;-60
2021/05/15 01:05:28;;;;;;;4.80;3.83;;;;;;;7.74;100.00;99721.22;2062140;28;20077;-60
2021/05/15 01:06:29;;;;;;;4.27;3.70;;;;;;;7.82;100.00;99727.03;2061153;28;20549;-60
2021/05/15 01:07:30;;;;;;;6.13;3.67;;;;;;;7.84;100.00;99722.63;2061595;28;20133;-60
2021/05/15 01:08:30;;;;;;;4.97;4.05;;;;;;;7.91;100.00;99723.31;2061691;28;20026;-60
2021/05/15 01:09:30;;;;;;;5.17;3.60;;;;;;;7.78;100.00;99717.63;2061119;28;20060;-60
2021/05/15 01:10:31;;;;;;;3.90;3.47;;;;;;;7.95;100.00;99722.38;2061872;28;20054;-60
2021/05/15 01:11:31;;;;;;;5.60;3.57;;;;;;;7.84;100.00;99719.19;2059363;28;20030;-60
2021/05/15 01:12:32;;;;;;;3.60;3.20;;;;;;;7.87;99.96;99719.13;2061511;28;20074;-60
2021/05/15 01:13:34;;;;;;;5.40;3.30;;;;;;;7.87;100.00;99719.97;2060798;28;20101;-60
2021/05/15 01:14:37;;;;;;;6.07;3.33;;;;;;;7.83;100.00;99717.50;2061498;28;20093;-60
2021/05/15 01:15:37;;;;;;;14.20;3.40;;;;;;;7.76;99.93;99722.00;2060742;28;20570;-60
2021/05/15 01:16:38;;;;;;;4.60;3.50;;;;;;;7.87;99.99;99716.53;2057814;28;20093;-60
2021/05/15 01:17:38;;;;;;;4.73;3.50;;;;;;;7.78;99.97;99723.69;2061259;28;20109;-60
2021/05/15 01:18:38;;;;;;;3.40;3.10;;;;;;;7.82;100.00;99728.75;2062092;28;20030;-60
2021/05/15 01:19:40;;;;;;;4.00;3.23;;;;;;;7.79;100.00;99722.75;2062010;28;20030;-60
2021/05/15 01:20:40;;;;;;;6.15;3.15;;;;;;;7.82;100.00;99719.25;2061257;28;20054;-60
2021/05/15 01:21:41;;;;;;;3.80;3.40;;;;;;;7.80;100.00;99723.63;2052972;28;20031;-60
2021/05/15 01:22:41;;;;;;;3.73;3.40;;;;;;;7.87;99.95;99716.53;2053579;28;20329;-60
2021/05/15 01:23:41;;;;;;;4.30;3.10;;;;;;;7.85;100.00;99726.09;2061276;28;20101;-60
2021/05/15 01:24:45;;;;;;;4.85;3.08;;;;;;;7.85;100.00;99723.50;2062050;28;20505;-60
2021/05/15 01:25:46;;;;;;;3.67;3.13;;;;;;;7.88;100.00;99719.06;2060939;28;20173;-60
2021/05/15 01:26:46;;;;;;;4.90;3.30;;;;;;;7.82;100.00;99726.16;2061876;28;20038;-60
2021/05/15 01:27:47;;;;;;;3.77;2.80;;;;;;;8.00;99.99;99724.84;2061843;28;20041;-61
2021/05/15 01:28:50;;;;;;;6.90;2.83;;;;;;;7.99;99.72;99720.53;2061316;28;20026;-60
2021/05/15 01:29:52;;;;;;;7.32;2.97;;;;;;;8.00;99.87;99720.47;2061716;28;20278;-60
2021/05/15 01:30:52;;;;;;;3.33;2.90;;;;;;;8.01;99.57;99714.41;2061938;28;20093;-60
2021/05/15 01:31:53;;;;;;;5.57;2.90;;;;;;;7.98;99.53;99711.91;2061005;28;20062;-60
2021/05/15 01:32:53;;;;;;;5.15;3.00;;;;;;;8.02;99.22;99716.09;2061922;28;20038;-60
2021/05/15 01:33:53;;;;;;;6.53;3.10;;;;;;;8.12;98.88;99721.91;2060733;28;20033;-60
2021/05/15 01:34:54;;;;;;;4.90;3.10;;;;;;;7.98;99.12;99713.63;2062073;28;20034;-60
2021/05/15 01:35:55;;;;;;;3.37;2.83;;;;;;;8.08;98.80;99715.94;2061252;28;20474;-60
2021/05/15 01:36:56;;;;;;;;;;;;;;;8.01;99.12;99709.22;2062349;28;20398;-60
2021/05/15 01:37:57;;;;;;;4.18;2.67;;;;;;;7.99;99.09;99710.16;2061525;28;19916;-60
2021/05/15 01:38:57;;;;;;;4.55;2.97;;;;;;;7.95;99.47;99704.19;2061626;28;20038;-60
2021/05/15 01:39:58;;;;;;;4.10;3.23;;;;;;;7.93;99.65;99714.63;2061613;28;20375;-61
2021/05/15 01:41:06;;;;;;;3.40;2.70;;;;;;;7.90;99.62;99703.47;2061729;28;20045;-60
2021/05/15 01:42:07;;;;;;;3.33;2.60;;;;;;;7.94;99.64;99703.31;2061137;28;20045;-61
2021/05/15 01:43:07;;;;;;;4.30;2.70;;;;;;;8.00;99.34;99704.91;2061072;28;20042;-60
2021/05/15 01:44:08;;;;;;;2.93;2.63;;;;;;;8.04;99.29;99698.75;2061224;28;20041;-60
2021/05/15 01:45:08;;;;;;;4.23;2.53;;;;;;;8.03;99.04;99688.44;2060351;28;20034;-61
2021/05/15 01:46:10;;;;;;;3.95;2.95;;;;;;;7.98;98.87;99698.94;2062317;28;20029;-60
2021/05/15 01:47:11;;;;;;;3.17;2.67;;;;;;;7.94;99.73;99699.91;2054577;28;20050;-60
2021/05/15 01:48:16;;;;;;;5.00;2.97;;;;;;;7.87;99.59;99693.19;2054286;28;20030;-61
2021/05/15 01:49:16;;;;;;;3.67;2.42;;;;;;;7.92;99.51;99696.50;2062349;28;20031;-61
2021/05/15 01:50:16;;;;;;;4.43;2.80;;;;;;;7.91;99.48;99692.19;2063162;28;20392;-61
2021/05/15 01:51:17;;;;;;;3.50;2.67;;;;;;;7.78;99.85;99689.09;2061573;28;20026;-60
2021/05/15 01:52:17;;;;;;;5.43;2.80;;;;;;;7.77;99.95;99690.84;2061833;28;20483;-60
2021/05/15 01:53:17;;;;;;;3.93;2.50;;;;;;;7.82;99.73;99695.03;2061492;28;20026;-61
2021/05/15 01:54:18;;;;;;;2.83;2.53;;;;;;;7.88;99.37;99694.88;2061576;28;20022;-60
2021/05/15 01:55:21;;;;;;;2.87;2.53;;;;;;;7.95;99.15;99693.81;2061391;28;20471;-60
2021/05/15 01:56:24;;;;;;;3.28;2.83;;;;;;;7.86;99.23;99692.31;2061600;28;20026;-60
2021/05/15 01:57:25;;;;;;;4.38;2.38;;;;;;;7.85;99.58;99692.38;2060833;28;20030;-60
2021/05/15 01:58:26;;;;;;;3.97;2.67;;;;;;;8.05;99.07;99682.28;2061935;28;20437;-60
2021/05/15 01:59:27;;;;;;;4.75;2.60;;;;;;;8.16;98.51;99694.13;2060626;28;20093;-60
2021/05/15 02:00:27;;;;;;;3.93;2.63;;;;;;;8.17;98.29;99688.88;2062188;28;20026;-60
2021/05/15 02:01:28;;;;;;;4.38;2.63;;;;;;;8.29;97.52;99687.66;2058839;28;20030;-60
2021/05/15 02:02:28;;;;;;;5.40;2.83;;;;;;;8.29;97.26;99686.81;2061828;28;20026;-60
2021/05/15 02:03:29;;;;;;;6.47;2.50;;;;;;;8.34;97.14;99687.53;2061378;28;20601;-60
2021/05/15 02:04:29;;;;;;;4.43;3.10;;;;;;;8.39;96.90;99688.25;2060123;28;20108;-61
2021/05/15 02:05:30;;;;;;;4.13;2.40;;;;;;;8.47;96.34;99685.44;2062556;28;20022;-60
2021/05/15 02:06:30;;;;;;;4.63;2.60;;;;;;;8.48;96.30;99676.75;2063684;28;20101;-60
2021/05/15 02:07:30;;;;;;;3.83;2.60;;;;;;;8.49;96.20;99688.84;2062724;28;20723;-60
2021/05/15 02:08:31;;;;;;;2.80;2.53;;;;;;;8.55;95.89;99686.09;2060868;28;20046;-60
2021/05/15 02:09:31;;;;;;;3.03;2.63;;;;;;;8.60;95.64;99689.38;2061470;28;20096;-60
2021/05/15 02:10:31;;;;;;;3.27;2.40;;;;;;;8.62;95.49;99679.81;2064106;28;20069;-60
2021/05/15 02:11:32;;;;;;;4.23;2.20;;;;;;;8.68;95.11;99681.34;2062894;28;20030;-60
2021/05/15 02:12:32;;;;;;;3.70;2.40;;;;;;;8.66;94.83;99675.34;2061557;28;20479;-60
2021/05/15 02:13:33;;;;;;;2.33;2.10;;;;;;;8.56;94.71;99674.81;2059913;28;20022;-60
2021/05/15 02:14:33;;;;;;;4.67;2.43;;;;;;;8.45;95.47;99679.44;2054098;28;20034;-60
2021/05/15 02:15:33;;;;;;;5.63;2.60;;;;;;;8.42;95.49;99675.19;2054980;28;20035;-60
2021/05/15 02:16:34;;;;;;;2.40;2.00;;;;;;;8.32;95.73;99679.78;2062559;28;20022;-60
2021/05/15 02:17:34;;;;;;;4.63;2.20;;;;;;;8.26;96.04;99682.56;2060520;28;20036;-60
2021/05/15 02:18:34;;;;;;;3.13;2.30;;;;;;;8.25;95.92;99671.31;2063412;28;20038;-60
2021/05/15 02:19:34;;;;;;;5.53;2.07;;;;;;;8.24;96.01;99672.22;2062451;28;20069;-60
2021/05/15 02:20:35;;;;;;;3.67;1.90;;;;;;;8.14;96.20;99678.56;2062516;28;20368;-60
2021/05/15 02:21:36;;;;;;;2.37;2.03;;;;;;;8.05;96.70;99679.69;2061106;28;20037;-60
2021/05/15 02:22:36;;;;;;;2.92;1.95;;;;;;;8.15;96.55;99675.06;2061328;28;20289;-60
2021/05/15 02:23:37;;;;;;;3.30;1.93;;;;;;;8.08;96.78;99683.94;2060992;28;20129;-60
2021/05/15 02:24:37;;;;;;;3.97;2.10;;;;;;;8.09;96.82;99675.25;2062753;28;20046;-60
2021/05/15 02:25:38;;;;;;;4.47;1.80;;;;;;;8.12;96.70;99676.91;2063911;28;20097;-60
2021/05/15 02:26:38;;;;;;;2.40;2.10;;;;;;;8.19;96.45;99674.09;2064091;28;20022;-61
2021/05/15 02:27:38;;;;;;;2.23;2.00;;;;;;;8.23;96.46;99677.47;2064381;28;20038;-60
2021/05/15 02:28:39;;;;;;;2.53;1.93;;;;;;;8.32;95.98;99676.34;2055610;28;20483;-60
2021/05/15 02:29:39;;;;;;;2.87;2.10;;;;;;;8.43;95.78;99674.25;2055648;28;20042;-60
2021/05/15 02:30:39;;;;;;;4.17;1.97;;;;;;;8.47;95.09;99668.13;2064094;28;20030;-60
2021/05/15 02:31:40;;;;;;;4.17;2.20;;;;;;;8.53;94.65;99677.47;2055149;28;20034;-61
2021/05/15 02:32:40;;;;;;;3.67;2.37;;;;;;;8.51;94.79;99666.28;2055196;28;20031;-60
2021/05/15 02:33:40;;;;;;;2.70;2.00;;;;;;;8.65;94.11;99668.47;2064073;28;20492;-60
2021/05/15 02:34:41;;;;;;;2.97;1.50;;;;;;;8.59;94.12;99674.69;2063664;28;20037;-60
2021/05/15 02:35:41;;;;;;;2.77;1.77;;;;;;;8.56;94.12;99669.59;2064275;28;20173;-60
2021/05/15 02:36:42;;;;;;;4.28;1.70;;;;;;;8.51;94.05;99667.16;2063952;28;20066;-60
2021/05/15 02:37:42;;;;;;;4.70;2.20;;;;;;;8.46;94.63;99669.00;2064180;28;20068;-60
2021/05/15 02:38:42;;;;;;;3.23;1.77;;;;;;;8.43;94.63;99670.84;2064058;28;20034;-60
2021/05/15 02:39:43;;;;;;;1.80;1.70;;;;;;;8.39;94.71;99676.09;2065732;28;20026;-60
2021/05/15 02:40:46;;;;;;;3.10;1.90;;;;;;;8.42;94.38;99672.59;2065630;28;20034;-60
2021/05/15 02:41:46;;;;;;;2.00;1.80;;;;;;;8.43;94.39;99669.06;2065443;28;20055;-60
2021/05/15 02:42:49;;;;;;;2.83;1.70;;;;;;;8.46;94.44;99670.75;2065358;28;20423;-61
2021/05/15 02:43:50;;;;;;;4.28;2.10;;;;;;;8.45;94.60;99677.66;2065681;28;20026;-60
2021/05/15 02:44:52;;;;;;;2.17;1.67;;;;;;;8.51;93.97;99671.47;2065637;28;20060;-60
2021/05/15 02:45:52;;;;;;;2.15;1.80;;;;;;;8.52;94.18;99668.81;2065718;28;20033;-60
2021/05/15 02:46:53;;;;;;;4.00;1.70;;;;;;;8.52;93.97;99670.59;2065622;28;20026;-60
2021/05/15 02:47:53;;;;;;;4.17;1.70;;;;;;;8.43;94.59;99668.22;2065683;28;20407;-60
2021/05/15 02:48:54;;;;;;;2.38;1.52;;;;;;;8.38;94.84;99671.81;2065248;28;20023;-60
2021/05/15 02:49:54;;;;;;;3.33;1.50;;;;;;;8.36;94.57;99673.63;2065701;28;20083;-60
2021/05/15 02:50:54;;;;;;;2.73;1.73;;;;;;;8.34;94.90;99672.81;2065479;28;20097;-60
2021/05/15 02:51:54;;;;;;;2.33;1.63;;;;;;;8.33;94.99;99678.03;2065271;28;20026;-60
2021/05/15 02:52:55;;;;;;;3.00;1.77;;;;;;;8.33;95.24;99673.69;2065108;28;20033;-60
2021/05/15 02:53:56;;;;;;;1.93;1.63;;;;;;;8.34;95.23;99675.41;2065373;28;20517;-60
2021/05/15 02:54:56;;;;;;;1.88;1.65;;;;;;;8.38;95.02;99671.81;2065449;28;20053;-60
2021/05/15 02:55:59;;;;;;;4.17;1.80;;;;;;;8.40;95.00;99670.03;2065110;28;20096;-60
2021/05/15 02:56:59;;;;;;;2.35;1.67;;;;;;;8.34;94.85;99680.59;2065679;28;20130;-60
2021/05/15 02:57:59;;;;;;;3.10;1.63;;;;;;;8.32;95.24;99676.34;2056933;28;20612;-60
2021/05/15 02:59:00;;;;;;;6.00;2.00;;;;;;;8.27;95.25;99676.50;2057180;28;20038;-60
2021/05/15 03:00:01;;;;;;;2.47;1.80;;;;;;;8.23;95.58;99674.88;2065229;28;20026;-61
2021/05/15 03:01:01;;;;;;;7.45;1.75;;;;;;;8.26;95.78;99673.03;2065734;28;20568;-60
2021/05/15 03:02:03;;;;;;;4.27;1.90;;;;;;;8.21;95.46;99674.91;2064940;28;20049;-61
2021/05/15 03:03:04;;;;;;;4.00;1.80;;;;;;;8.17;95.63;99670.69;2065648;28;20032;-60
2021/05/15 03:04:04;;;;;;;2.13;1.70;;;;;;;8.17;95.90;99673.28;2065082;28;20479;-60
2021/05/15 03:05:07;;;;;;;4.03;1.77;;;;;;;8.20;95.04;99667.16;2065641;28;20018;-60
2021/05/15 03:06:07;;;;;;;2.50;1.75;;;;;;;8.18;95.37;99668.97;2056290;28;20054;-60
2021/05/15 03:07:08;;;;;;;3.47;2.43;;;;;;;8.07;95.78;99670.13;2056527;28;20050;-60
2021/05/15 03:08:08;;;;;;;17.63;10.43;;;;;;;8.04;95.98;99667.59;2064192;28;20046;-60
2021/05/15 03:09:08;;;;;;;5.57;3.97;;;;;;;7.94;96.32;99671.34;2065620;28;20538;-60
2021/05/15 03:10:10;;;;;;;3.23;2.50;;;;;;;7.91;96.74;99680.09;2065648;28;20064;-60
2021/05/15 03:11:11;;;;;;;5.95;1.80;;;;;;;7.92;96.68;99673.13;2065263;28;20085;-60
2021/05/15 03:12:12;;;;;;;1.85;1.60;;;;;;;8.24;94.75;99669.63;2056419;28;20070;-60
2021/05/15 03:13:12;;;;;;;6.13;1.65;;;;;;;8.23;94.53;99670.50;2056474;28;20038;-60
2021/05/15 03:14:12;;;;;;;3.00;1.53;;;;;;;8.21;94.66;99669.72;2065039;28;20018;-60
2021/05/15 03:15:13;;;;;;;2.20;1.60;;;;;;;8.12;94.77;99670.00;2065513;28;20058;-61
2021/05/15 03:16:14;;;;;;;2.85;1.63;;;;;;;8.16;94.83;99668.16;2065074;28;20089;-60
2021/05/15 03:17:14;;;;;;;3.03;1.70;;;;;;;8.22;94.34;99667.97;2065304;28;20435;-60
2021/05/15 03:18:14;;;;;;;2.77;1.80;;;;;;;8.20;94.16;99670.63;2065077;28;20026;-60
2021/05/15 03:19:15;;;;;;;2.20;1.60;;;;;;;8.36;93.32;99663.22;2065380;28;20467;-60
2021/05/15 03:20:17;;;;;;;3.87;1.60;;;;;;;8.31;93.43;99667.69;2065204;28;20030;-60
2021/05/15 03:21:18;;;;;;;4.43;1.80;;;;;;;8.30;93.56;99658.19;2065015;28;20046;-60
2021/05/15 03:22:21;;;;;;;3.60;1.70;;;;;;;8.18;94.00;99653.41;2064730;28;20033;-60
2021/05/15 03:23:21;;;;;;;2.03;1.63;;;;;;;8.25;93.88;99660.09;2065133;28;20022;-60
2021/05/15 03:24:22;;;;;;;2.83;1.70;;;;;;;8.17;94.18;99652.53;2064972;28;20037;-60
2021/05/15 03:25:22;;;;;;;2.90;1.90;;;;;;;8.14;94.55;99660.41;2065259;28;20026;-60
2021/05/15 03:26:22;;;;;;;3.77;1.70;;;;;;;8.17;94.57;99660.31;2065166;28;20350;-61
2021/05/15 03:27:23;;;;;;;4.73;2.50;;;;;;;8.30;93.97;99655.59;2065395;28;20096;-60
2021/05/15 03:28:23;;;;;;;2.97;1.70;;;;;;;8.18;94.50;99658.59;2065088;28;20034;-60
2021/05/15 03:29:23;;;;;;;4.37;1.73;;;;;;;8.20;94.30;99648.97;2065253;28;20014;-61
2021/05/15 03:30:23;;;;;;;1.43;1.33;;;;;;;8.18;94.55;99658.59;2065323;28;20018;-60
2021/05/15 03:31:24;;;;;;;1.70;1.50;;;;;;;8.23;94.56;99657.53;2064988;28;20110;-61
2021/05/15 03:32:24;;;;;;;2.23;1.57;;;;;;;8.25;94.29;99658.34;2064937;28;20403;-60
2021/05/15 03:33:25;;;;;;;2.20;1.93;;;;;;;8.24;94.52;99653.19;2065230;28;20077;-61
2021/05/15 03:34:25;;;;;;;2.60;1.90;;;;;;;8.27;94.46;99660.91;2065345;28;20494;-60
2021/05/15 03:35:26;;;;;;;3.37;1.77;;;;;;;8.35;93.93;99661.53;2065245;28;20029;-60
2021/05/15 03:36:26;;;;;;;;;;;;;;;8.29;94.16;99664.28;2065830;28;20081;-61
2021/05/15 03:37:27;;;;;;;3.95;1.92;;;;;;;8.33;93.77;99665.91;2065194;28;20386;-60
2021/05/15 03:38:27;;;;;;;2.40;1.90;;;;;;;8.34;94.07;99665.03;2065382;28;20382;-60
2021/05/15 03:39:27;;;;;;;3.10;1.70;;;;;;;8.39;93.81;99657.09;2065220;28;20105;-60
2021/05/15 03:40:28;;;;;;;3.77;1.80;;;;;;;8.46;92.91;99658.59;2065476;28;20359;-60
2021/05/15 03:41:28;;;;;;;2.93;1.70;;;;;;;8.45;93.27;99661.25;2064745;28;20030;-61
2021/05/15 03:42:28;;;;;;;2.33;1.50;;;;;;;8.46;93.37;99658.59;2065339;28;20138;-60
2021/05/15 03:43:29;;;;;;;2.13;1.60;;;;;;;8.50;93.08;99660.25;2064999;28;20026;-60
2021/05/15 03:44:29;;;;;;;3.17;1.57;;;;;;;8.52;92.65;99662.78;2065298;28;20015;-61
2021/05/15 03:45:30;;;;;;;3.03;1.90;;;;;;;8.57;92.65;99663.53;2065201;28;20265;-60
2021/05/15 03:46:30;;;;;;;3.23;1.80;;;;;;;8.56;92.68;99661.81;2065237;28;20479;-61
2021/05/15 03:47:31;;;;;;;2.97;1.90;;;;;;;8.59;92.70;99663.47;2065177;28;20394;-60
2021/05/15 03:48:31;;;;;;;2.23;1.50;;;;;;;8.65;92.23;99652.88;2065353;28;20026;-60
2021/05/15 03:49:32;;;;;;;2.83;1.75;;;;;;;8.62;92.47;99661.63;2064978;28;20034;-61
2021/05/15 03:50:32;;;;;;;2.53;1.73;;;;;;;8.62;92.45;99664.22;2064669;28;20034;-61
2021/05/15 03:51:33;;;;;;;3.40;1.63;;;;;;;8.64;92.52;99662.44;2063987;28;20050;-62
2021/05/15 03:52:33;;;;;;;3.38;1.85;;;;;;;8.64;92.43;99666.75;2056438;28;20031;-61
2021/05/15 03:53:34;;;;;;;3.23;1.60;;;;;;;8.68;92.38;99665.78;2056267;28;20027;-60
2021/05/15 03:54:35;;;;;;;2.17;1.43;;;;;;;8.68;92.12;99666.59;2065024;28;20509;-60
2021/05/15 03:55:35;;;;;;;4.95;1.70;;;;;;;8.76;91.62;99661.19;2064852;28;20034;-60
2021/05/15 03:56:36;;;;;;;4.20;1.87;;;;;;;8.77;92.01;99662.06;2064872;28;20069;-60
2021/05/15 03:57:36;;;;;;;3.13;1.60;;;;;;;8.81;91.37;99663.63;2064956;28;20026;-60
2021/05/15 03:58:36;;;;;;;3.27;1.80;;;;;;;8.81;91.46;99658.44;2056229;28;20081;-61
2021/05/15 03:59:37;;;;;;;1.90;1.40;;;;;;;8.84;91.42;99661.78;2056203;28;20030;-60
2021/05/15 04:00:37;;;;;;;2.07;1.57;;;;;;;8.85;91.41;99665.25;2063494;28;20030;-60
2021/05/15 04:01:37;;;;;;;2.43;1.67;;;;;;;8.88;91.21;99659.94;2055984;28;20027;-60
2021/05/15 04:02:38;;;;;;;5.63;2.03;;;;;;;8.93;90.79;99662.38;2063430;28;20030;-60
2021/05/15 04:03:38;;;;;;;3.47;1.60;;;;;;;8.96;90.72;99670.97;2063619;28;20081;-61
2021/05/15 04:04:38;;;;;;;2.23;1.70;;;;;;;8.98;90.90;99666.53;2064177;28;20049;-60
2021/05/15 04:05:39;;;;;;;2.47;1.70;;;;;;;9.01;90.99;99660.41;2063548;28;20383;-60
2021/05/15 04:06:39;;;;;;;2.70;1.60;;;;;;;9.04;90.87;99670.69;2064478;28;20041;-60
2021/05/15 04:07:39;;;;;;;4.03;2.10;;;;;;;9.06;90.46;99665.47;2064939;28;20073;-60
2021/05/15 04:08:40;;;;;;;3.67;1.50;;;;;;;9.10;90.56;99669.66;2055382;28;20117;-62
2021/05/15 04:09:40;;;;;;;2.03;1.50;;;;;;;9.11;90.32;99668.75;2056154;28;20033;-61
2021/05/15 04:10:40;;;;;;;2.90;1.93;;;;;;;9.11;90.32;99671.34;2064642;28;20606;-61
2021/05/15 04:11:40;;;;;;;4.17;1.80;;;;;;;9.11;90.50;99672.19;2065009;28;20066;-61
2021/05/15 04:12:49;;;;;;;4.90;1.73;;;;;;;9.15;90.18;99671.19;2065159;28;20471;-61
2021/05/15 04:13:54;;;;;;;2.15;1.58;;;;;;;9.11;90.22;99660.94;2065390;28;20030;-61
2021/05/15 04:15:07;;;;;;;3.40;1.80;;;;;;;9.12;90.09;99670.44;2065274;28;20109;-61
2021/05/15 04:16:15;;;;;;;2.33;1.60;;;;;;;9.09;90.00;99671.41;2065342;28;20450;-61
2021/05/15 04:17:28;;;;;;;3.85;1.60;;;;;;;9.14;90.03;99666.91;2064836;28;20084;-61
2021/05/15 04:18:30;;;;;;;2.95;1.60;;;;;;;9.16;90.07;99672.06;2064962;28;20471;-61
2021/05/15 04:19:30;;;;;;;2.13;1.55;;;;;;;9.21;90.01;99666.72;2065288;28;20046;-60
2021/05/15 04:20:32;;;;;;;2.53;1.60;;;;;;;9.26;89.69;99668.22;2064885;28;20037;-61
2021/05/15 04:21:33;;;;;;;2.13;1.63;;;;;;;9.24;89.55;99664.84;2064872;28;20014;-61
2021/05/15 04:22:33;;;;;;;1.80;1.60;;;;;;;9.26;89.75;99662.19;2064611;28;20022;-61
2021/05/15 04:23:33;;;;;;;1.50;1.40;;;;;;;9.27;89.97;99667.34;2064958;28;20451;-60
2021/05/15 04:24:34;;;;;;;3.10;1.80;;;;;;;9.24;89.78;99666.59;2064896;28;20027;-60
2021/05/15 04:25:35;;;;;;;2.53;1.77;;;;;;;9.28;89.78;99671.63;2065008;28;20033;-61
2021/05/15 04:26:35;;;;;;;6.35;1.55;;;;;;;9.34;89.51;99667.97;2064824;28;20038;-60
2021/05/15 04:27:36;;;;;;;3.87;1.60;;;;;;;9.30;89.35;99669.84;2064816;28;20368;-60
2021/05/15 04:28:36;;;;;;;3.63;1.60;;;;;;;9.30;89.02;99672.44;2064942;28;20069;-60
2021/05/15 04:29:37;;;;;;;3.60;1.52;;;;;;;9.27;89.18;99671.69;2064818;28;20113;-60
2021/05/15 04:30:37;;;;;;;3.37;1.60;;;;;;;9.32;88.93;99674.97;2064710;28;20033;-60
2021/05/15 04:31:38;;;;;;;3.13;1.70;;;;;;;9.23;89.10;99676.16;2062611;28;20035;-60
2021/05/15 04:32:38;;;;;;;3.37;1.70;;;;;;;9.23;89.19;99675.28;2063943;28;20041;-61
2021/05/15 04:33:38;;;;;;;4.07;1.70;;;;;;;9.23;89.20;99673.56;2063240;28;20656;-60
2021/05/15 04:34:38;;;;;;;3.33;1.70;;;;;;;9.21;89.17;99677.94;2063570;28;20022;-60
2021/05/15 04:35:39;;;;;;;1.93;1.73;;;;;;;9.20;89.63;99676.25;2063355;28;20088;-60
2021/05/15 04:36:39;;;;;;;5.20;1.87;;;;;;;9.20;89.43;99673.66;2062098;28;20046;-60
2021/05/15 04:37:40;;;;;;;3.63;1.70;;;;;;;9.21;89.71;99671.91;2060435;28;20039;-60
2021/05/15 04:38:40;;;;;;;5.75;2.00;;;;;;;9.17;89.77;99677.19;2061023;28;20026;-60
2021/05/15 04:39:40;;;;;;;3.07;2.00;;;;;;;9.19;89.68;99684.94;2062617;28;20034;-61
2021/05/15 04:40:41;;;;;;;4.07;1.80;;;;;;;9.20;89.84;99671.03;2062484;28;20030;-60
2021/05/15 04:41:41;;;;;;;3.00;1.90;;;;;;;9.19;89.83;99679.75;2062176;28;20117;-60
2021/05/15 04:42:42;;;;;;;3.87;2.27;;;;;;;9.19;89.96;99680.63;2062122;28;20034;-60
2021/05/15 04:43:42;;;;;;;2.80;1.73;;;;;;;9.18;90.19;99685.84;2062266;28;20081;-60
2021/05/15 04:44:42;;;;;;;4.43;1.90;;;;;;;9.19;90.04;99679.75;2062033;28;20336;-61
2021/05/15 04:45:43;;;;;;;2.37;1.40;;;;;;;9.18;89.86;99686.72;2062337;28;20345;-61
2021/05/15 04:46:43;;;;;;;2.43;1.80;;;;;;;9.17;89.89;99673.75;2062428;28;20029;-60
2021/05/15 04:47:43;;;;;;;3.53;1.97;;;;;;;9.16;89.90;99674.66;2057637;28;20634;-60
2021/05/15 04:48:44;;;;;;;3.00;1.93;;;;;;;9.24;89.53;99685.66;2062447;28;20069;-61
2021/05/15 04:49:45;;;;;;;2.08;1.70;;;;;;;9.19;89.78;99679.75;2062287;28;20033;-61